Sikinos, Greece
Current Conditions -  °F | °C
As of 8:50 PM on Wednesday 28 Jan 2015 (Local Time) from LGPA Reporting Station
NA  
Wind Chill: 54°   Ceiling: NA
Heat Index: 54°   Visibility: NA
Dew Point: 45°   Wind: 5mph
Humidity: 72%   Direction: 70°ENE
Pressure: 29.83"   Gusts: NA
Location:  36.69°N, 25.11°E
Report Text: LGPA 281750Z AUTO 07004KT 040V100 //// // ////// 12/07 Q1010 RE//
Loading
Personal Weather Stations






























Interactive Weather Map New forecast layout! Learn more

10-Day Weather Forecast

Advertisements
Track Severe Weather on mobile